sensor_id;sensor_type;location;lat;lon;timestamp;P1;durP1;ratioP1;P2;durP2;ratioP2
47659;SDS011;33403;43.608;1.458;2022-08-19T00:00:00;7.90;;;5.03;;
47659;SDS011;33403;43.608;1.458;2022-08-19T00:02:26;7.45;;;5.28;;
47659;SDS011;33403;43.608;1.458;2022-08-19T00:04:52;10.80;;;5.28;;
47659;SDS011;33403;43.608;1.458;2022-08-19T00:07:19;5.95;;;4.75;;
47659;SDS011;33403;43.608;1.458;2022-08-19T00:09:45;9.63;;;4.97;;
47659;SDS011;33403;43.608;1.458;2022-08-19T00:12:11;5.82;;;5.07;;
47659;SDS011;33403;43.608;1.458;2022-08-19T00:14:38;5.55;;;4.75;;
47659;SDS011;33403;43.608;1.458;2022-08-19T00:17:05;7.78;;;5.40;;
47659;SDS011;33403;43.608;1.458;2022-08-19T00:19:31;9.15;;;5.20;;
47659;SDS011;33403;43.608;1.458;2022-08-19T00:21:58;8.05;;;5.10;;
47659;SDS011;33403;43.608;1.458;2022-08-19T00:24:24;7.50;;;5.00;;
47659;SDS011;33403;43.608;1.458;2022-08-19T00:26:50;11.88;;;5.07;;
47659;SDS011;33403;43.608;1.458;2022-08-19T00:29:19;6.05;;;4.35;;
47659;SDS011;33403;43.608;1.458;2022-08-19T00:31:45;6.32;;;4.80;;
47659;SDS011;33403;43.608;1.458;2022-08-19T00:34:12;6.60;;;5.07;;
47659;SDS011;33403;43.608;1.458;2022-08-19T00:36:39;7.95;;;4.72;;
47659;SDS011;33403;43.608;1.458;2022-08-19T00:39:05;7.20;;;5.00;;
47659;SDS011;33403;43.608;1.458;2022-08-19T00:41:31;6.60;;;4.85;;
47659;SDS011;33403;43.608;1.458;2022-08-19T00:46:27;7.20;;;4.93;;
47659;SDS011;33403;43.608;1.458;2022-08-19T00:48:53;7.45;;;4.90;;
47659;SDS011;33403;43.608;1.458;2022-08-19T00:51:20;5.68;;;4.50;;
47659;SDS011;33403;43.608;1.458;2022-08-19T00:53:47;8.35;;;5.60;;
47659;SDS011;33403;43.608;1.458;2022-08-19T00:56:13;8.57;;;5.43;;
47659;SDS011;33403;43.608;1.458;2022-08-19T00:58:40;7.95;;;5.40;;
47659;SDS011;33403;43.608;1.458;2022-08-19T01:01:06;9.88;;;5.50;;
47659;SDS011;33403;43.608;1.458;2022-08-19T01:03:32;6.50;;;5.05;;
47659;SDS011;33403;43.608;1.458;2022-08-19T01:05:59;8.00;;;5.40;;
47659;SDS011;33403;43.608;1.458;2022-08-19T01:08:25;8.80;;;4.97;;
47659;SDS011;33403;43.608;1.458;2022-08-19T01:10:52;10.80;;;5.30;;
47659;SDS011;33403;43.608;1.458;2022-08-19T01:13:20;7.60;;;5.50;;
47659;SDS011;33403;43.608;1.458;2022-08-19T01:15:48;6.82;;;5.32;;
47659;SDS011;33403;43.608;1.458;2022-08-19T01:18:17;8.00;;;5.30;;
47659;SDS011;33403;43.608;1.458;2022-08-19T01:20:43;6.85;;;5.13;;
47659;SDS011;33403;43.608;1.458;2022-08-19T01:23:10;7.15;;;4.95;;
47659;SDS011;33403;43.608;1.458;2022-08-19T01:25:44;5.85;;;4.97;;
47659;SDS011;33403;43.608;1.458;2022-08-19T01:28:15;7.82;;;5.68;;
47659;SDS011;33403;43.608;1.458;2022-08-19T01:30:42;9.57;;;5.65;;
47659;SDS011;33403;43.608;1.458;2022-08-19T01:33:09;7.75;;;4.97;;
47659;SDS011;33403;43.608;1.458;2022-08-19T01:35:35;7.95;;;5.28;;
47659;SDS011;33403;43.608;1.458;2022-08-19T01:38:03;8.80;;;5.60;;
47659;SDS011;33403;43.608;1.458;2022-08-19T01:40:33;8.02;;;5.28;;
47659;SDS011;33403;43.608;1.458;2022-08-19T01:42:59;9.25;;;5.15;;
47659;SDS011;33403;43.608;1.458;2022-08-19T01:45:26;10.85;;;6.32;;
47659;SDS011;33403;43.608;1.458;2022-08-19T01:47:53;10.32;;;5.85;;
47659;SDS011;33403;43.608;1.458;2022-08-19T01:50:19;11.27;;;6.20;;
47659;SDS011;33403;43.608;1.458;2022-08-19T01:52:45;9.13;;;5.30;;
47659;SDS011;33403;43.608;1.458;2022-08-19T01:55:13;9.45;;;6.05;;
47659;SDS011;33403;43.608;1.458;2022-08-19T01:57:40;6.85;;;5.25;;
47659;SDS011;33403;43.608;1.458;2022-08-19T02:00:07;9.13;;;5.40;;
47659;SDS011;33403;43.608;1.458;2022-08-19T02:02:34;8.32;;;5.38;;
47659;SDS011;33403;43.608;1.458;2022-08-19T02:05:00;8.00;;;5.40;;
47659;SDS011;33403;43.608;1.458;2022-08-19T02:07:26;12.68;;;5.97;;
47659;SDS011;33403;43.608;1.458;2022-08-19T02:09:53;10.63;;;5.53;;
47659;SDS011;33403;43.608;1.458;2022-08-19T02:12:20;7.57;;;5.50;;
47659;SDS011;33403;43.608;1.458;2022-08-19T02:14:46;8.25;;;5.40;;
47659;SDS011;33403;43.608;1.458;2022-08-19T02:17:12;8.07;;;5.00;;
47659;SDS011;33403;43.608;1.458;2022-08-19T02:19:38;7.70;;;5.35;;
47659;SDS011;33403;43.608;1.458;2022-08-19T02:22:05;8.27;;;4.88;;
47659;SDS011;33403;43.608;1.458;2022-08-19T02:24:31;6.18;;;4.82;;
47659;SDS011;33403;43.608;1.458;2022-08-19T02:26:57;8.93;;;5.65;;
47659;SDS011;33403;43.608;1.458;2022-08-19T02:29:24;10.57;;;5.88;;
47659;SDS011;33403;43.608;1.458;2022-08-19T02:31:50;7.00;;;5.18;;
47659;SDS011;33403;43.608;1.458;2022-08-19T02:34:16;8.32;;;5.60;;
47659;SDS011;33403;43.608;1.458;2022-08-19T02:36:43;7.68;;;5.03;;
47659;SDS011;33403;43.608;1.458;2022-08-19T02:39:09;7.72;;;5.25;;
47659;SDS011;33403;43.608;1.458;2022-08-19T02:41:35;9.23;;;5.65;;
47659;SDS011;33403;43.608;1.458;2022-08-19T02:44:02;8.80;;;5.53;;
47659;SDS011;33403;43.608;1.458;2022-08-19T02:46:30;7.78;;;5.20;;
47659;SDS011;33403;43.608;1.458;2022-08-19T02:48:57;8.20;;;5.28;;
47659;SDS011;33403;43.608;1.458;2022-08-19T02:51:30;7.38;;;5.22;;
47659;SDS011;33403;43.608;1.458;2022-08-19T02:53:56;8.73;;;4.85;;
47659;SDS011;33403;43.608;1.458;2022-08-19T02:56:23;9.85;;;5.55;;
47659;SDS011;33403;43.608;1.458;2022-08-19T02:58:52;6.68;;;4.68;;
47659;SDS011;33403;43.608;1.458;2022-08-19T03:01:20;8.10;;;5.55;;
47659;SDS011;33403;43.608;1.458;2022-08-19T03:03:46;10.52;;;5.32;;
47659;SDS011;33403;43.608;1.458;2022-08-19T03:06:13;7.75;;;5.00;;
47659;SDS011;33403;43.608;1.458;2022-08-19T03:08:43;7.57;;;4.75;;
47659;SDS011;33403;43.608;1.458;2022-08-19T03:11:16;7.50;;;5.35;;
47659;SDS011;33403;43.608;1.458;2022-08-19T03:13:43;9.88;;;5.60;;
47659;SDS011;33403;43.608;1.458;2022-08-19T03:16:10;7.18;;;5.03;;
47659;SDS011;33403;43.608;1.458;2022-08-19T03:18:36;8.63;;;5.55;;
47659;SDS011;33403;43.608;1.458;2022-08-19T03:21:02;8.40;;;5.57;;
47659;SDS011;33403;43.608;1.458;2022-08-19T03:23:28;8.05;;;4.65;;
47659;SDS011;33403;43.608;1.458;2022-08-19T03:25:54;10.73;;;5.78;;
47659;SDS011;33403;43.608;1.458;2022-08-19T03:28:20;7.15;;;5.18;;
47659;SDS011;33403;43.608;1.458;2022-08-19T03:30:57;9.35;;;5.63;;
47659;SDS011;33403;43.608;1.458;2022-08-19T03:33:24;8.57;;;5.03;;
47659;SDS011;33403;43.608;1.458;2022-08-19T03:36:01;6.65;;;4.90;;
47659;SDS011;33403;43.608;1.458;2022-08-19T03:38:27;9.25;;;5.40;;
47659;SDS011;33403;43.608;1.458;2022-08-19T03:40:53;9.57;;;5.32;;
47659;SDS011;33403;43.608;1.458;2022-08-19T03:43:19;7.65;;;5.00;;
47659;SDS011;33403;43.608;1.458;2022-08-19T03:45:46;8.43;;;5.38;;
47659;SDS011;33403;43.608;1.458;2022-08-19T03:48:13;9.50;;;5.15;;
47659;SDS011;33403;43.608;1.458;2022-08-19T03:50:41;7.45;;;5.30;;
47659;SDS011;33403;43.608;1.458;2022-08-19T03:53:07;7.15;;;5.07;;
47659;SDS011;33403;43.608;1.458;2022-08-19T03:55:34;10.07;;;5.07;;
47659;SDS011;33403;43.608;1.458;2022-08-19T03:58:04;9.38;;;5.00;;
47659;SDS011;33403;43.608;1.458;2022-08-19T04:00:31;8.70;;;5.07;;
47659;SDS011;33403;43.608;1.458;2022-08-19T04:02:58;7.82;;;5.35;;
47659;SDS011;33403;43.608;1.458;2022-08-19T04:05:26;10.25;;;5.07;;
47659;SDS011;33403;43.608;1.458;2022-08-19T04:07:53;8.45;;;5.63;;
47659;SDS011;33403;43.608;1.458;2022-08-19T04:10:22;9.88;;;5.40;;
47659;SDS011;33403;43.608;1.458;2022-08-19T04:12:49;10.30;;;4.85;;
47659;SDS011;33403;43.608;1.458;2022-08-19T04:15:15;10.88;;;4.75;;
47659;SDS011;33403;43.608;1.458;2022-08-19T04:17:41;7.07;;;4.72;;
47659;SDS011;33403;43.608;1.458;2022-08-19T04:20:07;9.55;;;5.40;;
47659;SDS011;33403;43.608;1.458;2022-08-19T04:22:33;9.98;;;5.15;;
47659;SDS011;33403;43.608;1.458;2022-08-19T04:24:59;8.98;;;5.32;;
47659;SDS011;33403;43.608;1.458;2022-08-19T04:27:25;9.75;;;4.97;;
47659;SDS011;33403;43.608;1.458;2022-08-19T04:29:51;6.78;;;4.20;;
47659;SDS011;33403;43.608;1.458;2022-08-19T04:32:19;8.40;;;5.13;;
47659;SDS011;33403;43.608;1.458;2022-08-19T04:34:46;7.57;;;4.60;;
47659;SDS011;33403;43.608;1.458;2022-08-19T04:37:12;7.55;;;4.68;;
47659;SDS011;33403;43.608;1.458;2022-08-19T04:39:39;8.60;;;4.82;;
47659;SDS011;33403;43.608;1.458;2022-08-19T04:42:24;8.00;;;4.47;;
47659;SDS011;33403;43.608;1.458;2022-08-19T04:45:09;10.80;;;5.32;;
47659;SDS011;33403;43.608;1.458;2022-08-19T04:47:37;7.93;;;4.80;;
47659;SDS011;33403;43.608;1.458;2022-08-19T04:50:04;6.72;;;4.93;;
47659;SDS011;33403;43.608;1.458;2022-08-19T04:52:30;9.70;;;4.75;;
47659;SDS011;33403;43.608;1.458;2022-08-19T04:54:57;8.15;;;4.97;;
47659;SDS011;33403;43.608;1.458;2022-08-19T04:57:23;8.85;;;4.45;;
47659;SDS011;33403;43.608;1.458;2022-08-19T04:59:49;4.85;;;4.18;;
47659;SDS011;33403;43.608;1.458;2022-08-19T05:02:19;9.55;;;4.70;;
47659;SDS011;33403;43.608;1.458;2022-08-19T05:04:45;11.27;;;4.90;;
47659;SDS011;33403;43.608;1.458;2022-08-19T05:07:11;7.50;;;4.80;;
47659;SDS011;33403;43.608;1.458;2022-08-19T05:09:37;8.60;;;4.57;;
47659;SDS011;33403;43.608;1.458;2022-08-19T05:12:03;6.53;;;4.82;;
47659;SDS011;33403;43.608;1.458;2022-08-19T05:14:29;6.53;;;4.47;;
47659;SDS011;33403;43.608;1.458;2022-08-19T05:16:55;9.20;;;4.40;;
47659;SDS011;33403;43.608;1.458;2022-08-19T05:19:21;7.88;;;4.30;;
47659;SDS011;33403;43.608;1.458;2022-08-19T05:22:06;6.13;;;4.25;;
47659;SDS011;33403;43.608;1.458;2022-08-19T05:24:51;10.05;;;4.80;;
47659;SDS011;33403;43.608;1.458;2022-08-19T05:27:17;8.43;;;4.47;;
47659;SDS011;33403;43.608;1.458;2022-08-19T05:29:43;8.32;;;4.50;;
47659;SDS011;33403;43.608;1.458;2022-08-19T05:32:09;6.72;;;4.65;;
47659;SDS011;33403;43.608;1.458;2022-08-19T05:34:35;8.30;;;4.80;;
47659;SDS011;33403;43.608;1.458;2022-08-19T05:37:03;8.35;;;4.78;;
47659;SDS011;33403;43.608;1.458;2022-08-19T05:39:30;7.78;;;4.88;;
47659;SDS011;33403;43.608;1.458;2022-08-19T05:42:02;8.18;;;4.53;;
47659;SDS011;33403;43.608;1.458;2022-08-19T05:44:29;8.68;;;4.65;;
47659;SDS011;33403;43.608;1.458;2022-08-19T05:47:02;8.20;;;4.45;;
47659;SDS011;33403;43.608;1.458;2022-08-19T05:49:29;8.80;;;5.00;;
47659;SDS011;33403;43.608;1.458;2022-08-19T05:51:56;7.18;;;4.95;;
47659;SDS011;33403;43.608;1.458;2022-08-19T05:54:24;6.43;;;4.43;;
47659;SDS011;33403;43.608;1.458;2022-08-19T05:56:50;8.88;;;5.03;;
47659;SDS011;33403;43.608;1.458;2022-08-19T05:59:17;7.00;;;4.50;;
47659;SDS011;33403;43.608;1.458;2022-08-19T06:01:45;10.07;;;5.13;;
47659;SDS011;33403;43.608;1.458;2022-08-19T06:04:15;6.05;;;4.45;;
47659;SDS011;33403;43.608;1.458;2022-08-19T06:06:43;7.10;;;4.55;;
47659;SDS011;33403;43.608;1.458;2022-08-19T06:09:09;7.45;;;4.50;;
47659;SDS011;33403;43.608;1.458;2022-08-19T06:11:39;9.13;;;4.55;;
47659;SDS011;33403;43.608;1.458;2022-08-19T06:14:11;8.68;;;5.22;;
47659;SDS011;33403;43.608;1.458;2022-08-19T06:16:38;8.50;;;4.18;;
47659;SDS011;33403;43.608;1.458;2022-08-19T06:19:06;5.40;;;4.28;;
47659;SDS011;33403;43.608;1.458;2022-08-19T06:21:33;8.93;;;4.85;;
47659;SDS011;33403;43.608;1.458;2022-08-19T06:23:59;8.43;;;4.32;;
47659;SDS011;33403;43.608;1.458;2022-08-19T06:26:25;8.00;;;4.50;;
47659;SDS011;33403;43.608;1.458;2022-08-19T06:28:52;6.80;;;4.60;;
47659;SDS011;33403;43.608;1.458;2022-08-19T06:31:19;9.85;;;4.57;;
47659;SDS011;33403;43.608;1.458;2022-08-19T06:33:46;13.13;;;5.38;;
47659;SDS011;33403;43.608;1.458;2022-08-19T06:36:19;7.60;;;4.47;;
47659;SDS011;33403;43.608;1.458;2022-08-19T06:38:46;8.07;;;4.80;;
47659;SDS011;33403;43.608;1.458;2022-08-19T06:41:12;9.18;;;4.70;;
47659;SDS011;33403;43.608;1.458;2022-08-19T06:43:38;8.02;;;4.68;;
47659;SDS011;33403;43.608;1.458;2022-08-19T06:46:09;9.70;;;5.00;;
47659;SDS011;33403;43.608;1.458;2022-08-19T06:48:36;10.27;;;4.68;;
47659;SDS011;33403;43.608;1.458;2022-08-19T06:51:02;9.10;;;4.35;;
47659;SDS011;33403;43.608;1.458;2022-08-19T06:53:30;9.00;;;4.50;;
47659;SDS011;33403;43.608;1.458;2022-08-19T06:55:57;7.40;;;4.60;;
47659;SDS011;33403;43.608;1.458;2022-08-19T06:58:27;7.57;;;4.43;;
47659;SDS011;33403;43.608;1.458;2022-08-19T07:00:56;9.77;;;4.20;;
47659;SDS011;33403;43.608;1.458;2022-08-19T07:03:25;6.97;;;3.97;;
47659;SDS011;33403;43.608;1.458;2022-08-19T07:05:53;7.38;;;4.05;;
47659;SDS011;33403;43.608;1.458;2022-08-19T07:08:19;9.38;;;4.68;;
47659;SDS011;33403;43.608;1.458;2022-08-19T07:10:45;8.05;;;4.13;;
47659;SDS011;33403;43.608;1.458;2022-08-19T07:13:11;7.28;;;4.15;;
47659;SDS011;33403;43.608;1.458;2022-08-19T07:15:37;8.48;;;4.13;;
47659;SDS011;33403;43.608;1.458;2022-08-19T07:18:03;6.88;;;4.03;;
47659;SDS011;33403;43.608;1.458;2022-08-19T07:20:29;7.32;;;4.00;;
47659;SDS011;33403;43.608;1.458;2022-08-19T07:22:56;7.30;;;4.07;;
47659;SDS011;33403;43.608;1.458;2022-08-19T07:25:22;9.38;;;3.70;;
47659;SDS011;33403;43.608;1.458;2022-08-19T07:27:49;7.07;;;3.80;;
47659;SDS011;33403;43.608;1.458;2022-08-19T07:30:15;7.82;;;4.22;;
47659;SDS011;33403;43.608;1.458;2022-08-19T07:32:42;8.30;;;4.20;;
47659;SDS011;33403;43.608;1.458;2022-08-19T07:35:08;5.75;;;3.78;;
47659;SDS011;33403;43.608;1.458;2022-08-19T07:37:35;9.68;;;3.88;;
47659;SDS011;33403;43.608;1.458;2022-08-19T07:40:03;8.32;;;3.88;;
47659;SDS011;33403;43.608;1.458;2022-08-19T07:42:29;7.35;;;3.70;;
47659;SDS011;33403;43.608;1.458;2022-08-19T07:44:55;8.18;;;3.97;;
47659;SDS011;33403;43.608;1.458;2022-08-19T07:47:21;7.28;;;3.78;;
47659;SDS011;33403;43.608;1.458;2022-08-19T07:49:47;6.82;;;3.90;;
47659;SDS011;33403;43.608;1.458;2022-08-19T07:52:13;4.82;;;3.70;;
47659;SDS011;33403;43.608;1.458;2022-08-19T07:54:41;5.72;;;3.50;;
47659;SDS011;33403;43.608;1.458;2022-08-19T07:57:08;4.53;;;3.72;;
47659;SDS011;33403;43.608;1.458;2022-08-19T07:59:34;8.07;;;3.85;;
47659;SDS011;33403;43.608;1.458;2022-08-19T08:02:01;6.70;;;3.85;;
47659;SDS011;33403;43.608;1.458;2022-08-19T08:04:28;4.60;;;3.55;;
47659;SDS011;33403;43.608;1.458;2022-08-19T08:07:12;6.93;;;4.10;;
47659;SDS011;33403;43.608;1.458;2022-08-19T08:09:57;7.55;;;3.90;;
47659;SDS011;33403;43.608;1.458;2022-08-19T08:12:28;5.82;;;3.70;;
47659;SDS011;33403;43.608;1.458;2022-08-19T08:14:56;6.50;;;3.72;;
47659;SDS011;33403;43.608;1.458;2022-08-19T08:17:24;11.38;;;4.32;;
47659;SDS011;33403;43.608;1.458;2022-08-19T08:19:50;6.40;;;3.58;;
47659;SDS011;33403;43.608;1.458;2022-08-19T08:22:17;8.63;;;4.18;;
47659;SDS011;33403;43.608;1.458;2022-08-19T08:25:04;6.63;;;3.90;;
47659;SDS011;33403;43.608;1.458;2022-08-19T08:27:31;8.40;;;4.05;;
47659;SDS011;33403;43.608;1.458;2022-08-19T08:29:57;6.70;;;4.03;;
47659;SDS011;33403;43.608;1.458;2022-08-19T08:32:23;10.18;;;4.28;;
47659;SDS011;33403;43.608;1.458;2022-08-19T08:34:49;7.88;;;4.22;;
47659;SDS011;33403;43.608;1.458;2022-08-19T08:37:15;6.55;;;4.10;;
47659;SDS011;33403;43.608;1.458;2022-08-19T08:39:41;6.22;;;4.15;;
47659;SDS011;33403;43.608;1.458;2022-08-19T08:42:17;7.63;;;3.90;;
47659;SDS011;33403;43.608;1.458;2022-08-19T08:47:16;5.90;;;4.10;;
47659;SDS011;33403;43.608;1.458;2022-08-19T08:49:45;5.35;;;3.75;;
47659;SDS011;33403;43.608;1.458;2022-08-19T08:52:15;5.50;;;3.78;;
47659;SDS011;33403;43.608;1.458;2022-08-19T08:54:44;8.43;;;4.30;;
47659;SDS011;33403;43.608;1.458;2022-08-19T08:57:13;8.40;;;4.07;;
47659;SDS011;33403;43.608;1.458;2022-08-19T08:59:41;9.23;;;3.85;;
47659;SDS011;33403;43.608;1.458;2022-08-19T09:02:08;5.63;;;3.40;;
47659;SDS011;33403;43.608;1.458;2022-08-19T09:04:37;5.30;;;3.55;;
47659;SDS011;33403;43.608;1.458;2022-08-19T09:10:01;7.53;;;4.00;;
47659;SDS011;33403;43.608;1.458;2022-08-19T09:15:11;6.10;;;3.80;;
47659;SDS011;33403;43.608;1.458;2022-08-19T09:17:37;6.30;;;3.90;;
47659;SDS011;33403;43.608;1.458;2022-08-19T09:20:06;4.13;;;3.72;;
47659;SDS011;33403;43.608;1.458;2022-08-19T09:22:34;7.20;;;4.00;;
47659;SDS011;33403;43.608;1.458;2022-08-19T09:25:00;7.60;;;3.80;;
47659;SDS011;33403;43.608;1.458;2022-08-19T09:27:27;7.53;;;3.78;;
47659;SDS011;33403;43.608;1.458;2022-08-19T09:29:53;7.22;;;3.70;;
47659;SDS011;33403;43.608;1.458;2022-08-19T09:32:20;9.07;;;3.97;;
47659;SDS011;33403;43.608;1.458;2022-08-19T09:34:46;5.72;;;4.00;;
47659;SDS011;33403;43.608;1.458;2022-08-19T09:37:12;5.03;;;3.60;;
47659;SDS011;33403;43.608;1.458;2022-08-19T09:39:39;5.35;;;3.63;;
47659;SDS011;33403;43.608;1.458;2022-08-19T09:42:06;9.85;;;4.00;;
47659;SDS011;33403;43.608;1.458;2022-08-19T09:44:37;7.60;;;3.60;;
47659;SDS011;33403;43.608;1.458;2022-08-19T09:47:03;7.80;;;3.72;;
47659;SDS011;33403;43.608;1.458;2022-08-19T09:49:29;5.05;;;3.67;;
47659;SDS011;33403;43.608;1.458;2022-08-19T09:51:56;6.82;;;4.00;;
47659;SDS011;33403;43.608;1.458;2022-08-19T09:54:23;7.43;;;4.15;;
47659;SDS011;33403;43.608;1.458;2022-08-19T09:56:49;6.68;;;3.67;;
47659;SDS011;33403;43.608;1.458;2022-08-19T09:59:15;6.25;;;3.90;;
47659;SDS011;33403;43.608;1.458;2022-08-19T10:01:41;6.18;;;4.10;;
47659;SDS011;33403;43.608;1.458;2022-08-19T10:04:07;7.88;;;3.70;;
47659;SDS011;33403;43.608;1.458;2022-08-19T10:06:34;7.15;;;3.83;;
47659;SDS011;33403;43.608;1.458;2022-08-19T10:09:02;4.43;;;3.30;;
47659;SDS011;33403;43.608;1.458;2022-08-19T10:11:31;5.70;;;3.63;;
47659;SDS011;33403;43.608;1.458;2022-08-19T10:13:57;5.45;;;3.60;;
47659;SDS011;33403;43.608;1.458;2022-08-19T10:16:23;5.40;;;3.65;;
47659;SDS011;33403;43.608;1.458;2022-08-19T10:18:50;5.72;;;3.30;;
47659;SDS011;33403;43.608;1.458;2022-08-19T10:21:17;6.32;;;3.30;;
47659;SDS011;33403;43.608;1.458;2022-08-19T10:23:45;5.45;;;3.75;;
47659;SDS011;33403;43.608;1.458;2022-08-19T10:26:18;4.57;;;3.45;;
47659;SDS011;33403;43.608;1.458;2022-08-19T10:28:44;5.78;;;3.60;;
47659;SDS011;33403;43.608;1.458;2022-08-19T10:31:15;4.63;;;3.45;;
47659;SDS011;33403;43.608;1.458;2022-08-19T10:33:42;6.90;;;3.85;;
47659;SDS011;33403;43.608;1.458;2022-08-19T10:36:13;5.20;;;3.60;;
47659;SDS011;33403;43.608;1.458;2022-08-19T10:38:40;5.68;;;3.78;;
47659;SDS011;33403;43.608;1.458;2022-08-19T10:41:13;4.97;;;3.10;;
47659;SDS011;33403;43.608;1.458;2022-08-19T10:43:40;5.10;;;3.47;;
47659;SDS011;33403;43.608;1.458;2022-08-19T10:46:07;6.30;;;3.55;;
47659;SDS011;33403;43.608;1.458;2022-08-19T10:48:33;6.65;;;3.60;;
47659;SDS011;33403;43.608;1.458;2022-08-19T10:51:00;5.43;;;3.50;;
47659;SDS011;33403;43.608;1.458;2022-08-19T10:53:44;5.65;;;3.80;;
47659;SDS011;33403;43.608;1.458;2022-08-19T10:56:10;4.07;;;3.42;;
47659;SDS011;33403;43.608;1.458;2022-08-19T10:58:55;5.90;;;3.42;;
47659;SDS011;33403;43.608;1.458;2022-08-19T11:01:22;4.63;;;3.42;;
47659;SDS011;33403;43.608;1.458;2022-08-19T11:03:48;5.95;;;3.50;;
47659;SDS011;33403;43.608;1.458;2022-08-19T11:06:14;6.45;;;3.58;;
47659;SDS011;33403;43.608;1.458;2022-08-19T11:08:40;5.28;;;3.83;;
47659;SDS011;33403;43.608;1.458;2022-08-19T11:11:10;6.13;;;3.95;;
47659;SDS011;33403;43.608;1.458;2022-08-19T11:13:37;4.88;;;3.65;;
47659;SDS011;33403;43.608;1.458;2022-08-19T11:18:32;6.10;;;3.60;;
47659;SDS011;33403;43.608;1.458;2022-08-19T11:21:05;5.80;;;3.70;;
47659;SDS011;33403;43.608;1.458;2022-08-19T11:23:31;5.47;;;4.00;;
47659;SDS011;33403;43.608;1.458;2022-08-19T11:25:57;5.88;;;3.83;;
47659;SDS011;33403;43.608;1.458;2022-08-19T11:28:24;4.43;;;3.40;;
47659;SDS011;33403;43.608;1.458;2022-08-19T11:30:50;5.55;;;3.47;;
47659;SDS011;33403;43.608;1.458;2022-08-19T11:33:16;5.28;;;3.58;;
47659;SDS011;33403;43.608;1.458;2022-08-19T11:35:43;5.25;;;3.80;;
47659;SDS011;33403;43.608;1.458;2022-08-19T11:38:09;6.28;;;3.42;;
47659;SDS011;33403;43.608;1.458;2022-08-19T11:40:36;4.90;;;3.60;;
47659;SDS011;33403;43.608;1.458;2022-08-19T11:43:02;6.40;;;3.63;;
47659;SDS011;33403;43.608;1.458;2022-08-19T11:45:29;4.85;;;3.55;;
47659;SDS011;33403;43.608;1.458;2022-08-19T11:47:56;4.45;;;3.55;;
47659;SDS011;33403;43.608;1.458;2022-08-19T11:50:22;5.90;;;3.55;;
47659;SDS011;33403;43.608;1.458;2022-08-19T11:52:48;6.03;;;3.40;;
47659;SDS011;33403;43.608;1.458;2022-08-19T11:55:14;5.20;;;3.40;;
47659;SDS011;33403;43.608;1.458;2022-08-19T11:57:41;4.55;;;3.45;;
47659;SDS011;33403;43.608;1.458;2022-08-19T12:00:08;4.70;;;3.50;;
47659;SDS011;33403;43.608;1.458;2022-08-19T12:02:37;4.68;;;3.40;;
47659;SDS011;33403;43.608;1.458;2022-08-19T12:05:03;5.32;;;3.75;;
47659;SDS011;33403;43.608;1.458;2022-08-19T12:07:29;5.25;;;3.50;;
47659;SDS011;33403;43.608;1.458;2022-08-19T12:09:58;5.18;;;3.55;;
47659;SDS011;33403;43.608;1.458;2022-08-19T12:12:24;4.88;;;3.40;;
47659;SDS011;33403;43.608;1.458;2022-08-19T12:14:51;4.82;;;3.38;;
47659;SDS011;33403;43.608;1.458;2022-08-19T12:17:27;3.85;;;3.20;;
47659;SDS011;33403;43.608;1.458;2022-08-19T12:19:54;4.80;;;3.40;;
47659;SDS011;33403;43.608;1.458;2022-08-19T12:22:20;4.50;;;3.50;;
47659;SDS011;33403;43.608;1.458;2022-08-19T12:24:46;4.25;;;3.20;;
47659;SDS011;33403;43.608;1.458;2022-08-19T12:27:13;3.88;;;3.00;;
47659;SDS011;33403;43.608;1.458;2022-08-19T12:29:39;7.55;;;4.05;;
47659;SDS011;33403;43.608;1.458;2022-08-19T12:32:06;4.82;;;3.00;;
47659;SDS011;33403;43.608;1.458;2022-08-19T12:34:32;4.13;;;3.22;;
47659;SDS011;33403;43.608;1.458;2022-08-19T12:37:00;10.23;;;3.88;;
47659;SDS011;33403;43.608;1.458;2022-08-19T12:39:27;5.60;;;3.10;;
47659;SDS011;33403;43.608;1.458;2022-08-19T12:41:53;4.75;;;3.10;;
47659;SDS011;33403;43.608;1.458;2022-08-19T12:44:19;4.05;;;3.20;;
47659;SDS011;33403;43.608;1.458;2022-08-19T12:46:46;5.22;;;3.17;;
47659;SDS011;33403;43.608;1.458;2022-08-19T12:49:13;6.55;;;3.20;;
47659;SDS011;33403;43.608;1.458;2022-08-19T12:51:40;3.75;;;3.33;;
47659;SDS011;33403;43.608;1.458;2022-08-19T12:54:07;5.00;;;3.30;;
47659;SDS011;33403;43.608;1.458;2022-08-19T12:56:33;5.10;;;3.33;;
47659;SDS011;33403;43.608;1.458;2022-08-19T12:59:03;4.10;;;3.15;;
47659;SDS011;33403;43.608;1.458;2022-08-19T13:01:29;4.28;;;3.10;;
47659;SDS011;33403;43.608;1.458;2022-08-19T13:03:57;6.00;;;3.03;;
47659;SDS011;33403;43.608;1.458;2022-08-19T13:06:23;6.32;;;3.08;;
47659;SDS011;33403;43.608;1.458;2022-08-19T13:08:49;4.65;;;3.17;;
47659;SDS011;33403;43.608;1.458;2022-08-19T13:11:16;4.45;;;3.30;;
47659;SDS011;33403;43.608;1.458;2022-08-19T13:13:43;4.43;;;3.10;;
47659;SDS011;33403;43.608;1.458;2022-08-19T13:16:11;3.80;;;2.70;;
47659;SDS011;33403;43.608;1.458;2022-08-19T13:18:38;4.35;;;2.80;;
47659;SDS011;33403;43.608;1.458;2022-08-19T13:21:05;5.05;;;3.25;;
47659;SDS011;33403;43.608;1.458;2022-08-19T13:23:32;4.63;;;3.05;;
47659;SDS011;33403;43.608;1.458;2022-08-19T13:25:59;4.82;;;3.15;;
47659;SDS011;33403;43.608;1.458;2022-08-19T13:28:25;4.30;;;3.45;;
47659;SDS011;33403;43.608;1.458;2022-08-19T13:31:11;4.32;;;2.95;;
47659;SDS011;33403;43.608;1.458;2022-08-19T13:33:58;3.40;;;3.00;;
47659;SDS011;33403;43.608;1.458;2022-08-19T13:36:25;4.03;;;2.80;;
47659;SDS011;33403;43.608;1.458;2022-08-19T13:38:51;3.20;;;2.70;;
47659;SDS011;33403;43.608;1.458;2022-08-19T13:41:18;4.22;;;2.95;;
47659;SDS011;33403;43.608;1.458;2022-08-19T13:43:44;3.92;;;3.15;;
47659;SDS011;33403;43.608;1.458;2022-08-19T13:46:11;5.65;;;3.90;;
47659;SDS011;33403;43.608;1.458;2022-08-19T13:48:40;6.93;;;3.47;;
47659;SDS011;33403;43.608;1.458;2022-08-19T13:51:07;4.68;;;2.88;;
47659;SDS011;33403;43.608;1.458;2022-08-19T13:53:37;3.67;;;3.05;;
47659;SDS011;33403;43.608;1.458;2022-08-19T13:56:09;5.88;;;2.97;;
47659;SDS011;33403;43.608;1.458;2022-08-19T13:58:35;4.00;;;2.95;;
47659;SDS011;33403;43.608;1.458;2022-08-19T14:01:02;3.85;;;2.88;;
47659;SDS011;33403;43.608;1.458;2022-08-19T14:03:29;3.88;;;2.90;;
47659;SDS011;33403;43.608;1.458;2022-08-19T14:05:55;3.58;;;2.90;;
47659;SDS011;33403;43.608;1.458;2022-08-19T14:08:21;4.55;;;2.80;;
47659;SDS011;33403;43.608;1.458;2022-08-19T14:10:47;5.00;;;2.75;;
47659;SDS011;33403;43.608;1.458;2022-08-19T14:13:15;3.72;;;3.28;;
47659;SDS011;33403;43.608;1.458;2022-08-19T14:15:42;3.22;;;2.80;;
47659;SDS011;33403;43.608;1.458;2022-08-19T14:18:08;3.47;;;2.88;;
47659;SDS011;33403;43.608;1.458;2022-08-19T14:20:34;5.28;;;3.15;;
47659;SDS011;33403;43.608;1.458;2022-08-19T14:23:00;5.63;;;3.10;;
47659;SDS011;33403;43.608;1.458;2022-08-19T14:25:28;4.32;;;3.13;;
47659;SDS011;33403;43.608;1.458;2022-08-19T14:27:54;5.70;;;3.42;;
47659;SDS011;33403;43.608;1.458;2022-08-19T14:30:25;3.95;;;3.17;;
47659;SDS011;33403;43.608;1.458;2022-08-19T14:32:52;3.25;;;2.80;;
47659;SDS011;33403;43.608;1.458;2022-08-19T14:35:19;5.15;;;3.00;;
47659;SDS011;33403;43.608;1.458;2022-08-19T14:37:47;4.40;;;3.10;;
47659;SDS011;33403;43.608;1.458;2022-08-19T14:40:14;4.38;;;2.92;;
47659;SDS011;33403;43.608;1.458;2022-08-19T14:42:41;5.22;;;3.17;;
47659;SDS011;33403;43.608;1.458;2022-08-19T14:45:07;5.10;;;3.30;;
47659;SDS011;33403;43.608;1.458;2022-08-19T14:47:33;3.72;;;2.92;;
47659;SDS011;33403;43.608;1.458;2022-08-19T14:49:59;3.47;;;3.00;;
47659;SDS011;33403;43.608;1.458;2022-08-19T14:52:26;6.20;;;3.17;;
47659;SDS011;33403;43.608;1.458;2022-08-19T14:54:52;3.35;;;3.03;;
47659;SDS011;33403;43.608;1.458;2022-08-19T14:57:18;4.43;;;3.13;;
47659;SDS011;33403;43.608;1.458;2022-08-19T14:59:45;3.92;;;2.88;;
47659;SDS011;33403;43.608;1.458;2022-08-19T15:02:11;6.10;;;3.22;;